Ainsworth, Iowa
Current Conditions -  °F | °C
As of 8:15 AM on Thursday 18 Dec 2014 (Local Time) from KAWG Reporting Station
Overcast Overcast  
Wind Chill: 21°   Ceiling: 6500
Heat Index: 21°   Visibility: 9mi
Dew Point: 21°   Wind: 0mph
Humidity: 100%   Direction: NA
Pressure: 30.3"   Gusts: NA
Location:  41.29°N, 91.55°W
Report Text: KAWG 181415Z AUTO 00000KT 9SM BKN065 OVC075 M06/M06 A3030 RMK AO2
Loading
Personal Weather Stations






























Interactive Weather Map New forecast layout! Learn more

10-Day Weather Forecast

Advertisements
Track Severe Weather on mobile